Главная страница
METAR-TAF:

METAR-TAF

Аэропорты :

Эрбиль, Ирак

широта: 36-14-15N, долгота: 43-57-47E, высота над уровнем моря: 415 м

Текущие метеонаблюдения

Эта сводка был подготовлена 2 часа и 42 минут назад, в 00:00 UTC
Ветер 3 Узел от восточно-северо-восточный
Температура 3°C
Влажность 65%
Давление 1023 hPa
Видимость: 8000 м

METAR: ORER 280000Z 07003KT 8000 NSC 03/M03 Q1023

Время: 05:42 (02:42 UTC)

Прогноз

Эта сводка был подготовлена 3 часа и 42 минут назад, в 23:00 UTC
Прогноз действительный с 28-го 00 UTC до 28-го 24 UTC
Ветер 4 Узел от северо-восточный
Видимость: 7000 м
изменения
С 28-го 06 UTC до 28-го 08 UTC
Ветер 10 Узел от восточно-юго-восточный
Отдельные облака на высоте 4000 фута
Рассеянная облачность на высоте 9000 фута

TAF: ORER 272300Z 2800/2824 05004KT 7000 NSC BECMG 2806/2808 12010KT SCT040 BKN090

Метеонаблюдения и прогнозы для более 4000 аэропортов (сводки METAR и TAF).

Имеющиеся станции представлены на карте желтыми и красными точками.

Чтобы увидеть название станции, наведите на нее мышь.

Затем щелкните, чтобы увидеть метеонаблюдения и метеопрогнозы.

Управление картой: чтобы увеличить масштаб, щелкните зеленые кнопки с черным крестиком; чтобы уменьшить масштаб, щелкните зеленую кнопку с тире; для просмотра соседних карт щелкайте зеленые стрелки.


METAR-TAF: